sensor_id;sensor_type;location;lat;lon;timestamp;pressure;altitude;pressure_sealevel;temperature;humidity
51460;BME280;37534;39.772;2.718;2023-02-18T00:01:15;102957.25;;;6.05;100.00
51460;BME280;37534;39.772;2.718;2023-02-18T00:03:42;102951.38;;;6.09;100.00
51460;BME280;37534;39.772;2.718;2023-02-18T00:06:11;102948.47;;;6.25;100.00
51460;BME280;37534;39.772;2.718;2023-02-18T00:08:37;102936.44;;;6.24;100.00
51460;BME280;37534;39.772;2.718;2023-02-18T00:11:05;102947.72;;;6.30;100.00
51460;BME280;37534;39.772;2.718;2023-02-18T00:13:30;102946.41;;;6.14;100.00
51460;BME280;37534;39.772;2.718;2023-02-18T00:16:04;102944.59;;;6.09;100.00
51460;BME280;37534;39.772;2.718;2023-02-18T00:18:30;102933.00;;;5.94;100.00
51460;BME280;37534;39.772;2.718;2023-02-18T00:20:56;102951.03;;;5.97;100.00
51460;BME280;37534;39.772;2.718;2023-02-18T00:23:22;102936.88;;;5.81;100.00
51460;BME280;37534;39.772;2.718;2023-02-18T00:25:48;102942.28;;;5.90;100.00
51460;BME280;37534;39.772;2.718;2023-02-18T00:28:13;102937.94;;;5.87;100.00
51460;BME280;37534;39.772;2.718;2023-02-18T00:30:40;102943.06;;;5.87;100.00
51460;BME280;37534;39.772;2.718;2023-02-18T00:33:05;102939.41;;;5.79;100.00
51460;BME280;37534;39.772;2.718;2023-02-18T00:35:31;102931.44;;;5.70;100.00
51460;BME280;37534;39.772;2.718;2023-02-18T00:37:57;102940.88;;;5.71;100.00
51460;BME280;37534;39.772;2.718;2023-02-18T00:40:22;102931.47;;;5.71;100.00
51460;BME280;37534;39.772;2.718;2023-02-18T00:42:48;102926.50;;;5.76;100.00
51460;BME280;37534;39.772;2.718;2023-02-18T00:45:13;102928.06;;;5.71;100.00
51460;BME280;37534;39.772;2.718;2023-02-18T00:47:39;102921.06;;;5.65;100.00
51460;BME280;37534;39.772;2.718;2023-02-18T00:50:06;102925.56;;;5.72;100.00
51460;BME280;37534;39.772;2.718;2023-02-18T00:52:32;102926.25;;;5.67;100.00
51460;BME280;37534;39.772;2.718;2023-02-18T00:54:57;102932.38;;;5.72;100.00
51460;BME280;37534;39.772;2.718;2023-02-18T00:57:23;102933.94;;;5.67;100.00
51460;BME280;37534;39.772;2.718;2023-02-18T00:59:48;102931.38;;;5.67;100.00
51460;BME280;37534;39.772;2.718;2023-02-18T01:02:14;102926.88;;;5.60;100.00
51460;BME280;37534;39.772;2.718;2023-02-18T01:04:39;102934.75;;;5.66;100.00
51460;BME280;37534;39.772;2.718;2023-02-18T01:07:05;102927.59;;;5.56;100.00
51460;BME280;37534;39.772;2.718;2023-02-18T01:09:31;102930.16;;;5.56;100.00
51460;BME280;37534;39.772;2.718;2023-02-18T01:11:56;102939.06;;;5.68;100.00
51460;BME280;37534;39.772;2.718;2023-02-18T01:14:22;102938.78;;;5.86;100.00
51460;BME280;37534;39.772;2.718;2023-02-18T01:16:47;102929.13;;;5.78;100.00
51460;BME280;37534;39.772;2.718;2023-02-18T01:19:13;102926.47;;;5.75;100.00
51460;BME280;37534;39.772;2.718;2023-02-18T01:21:39;102936.75;;;5.76;100.00
51460;BME280;37534;39.772;2.718;2023-02-18T01:24:05;102922.03;;;5.69;100.00
51460;BME280;37534;39.772;2.718;2023-02-18T01:26:30;102930.84;;;5.50;100.00
51460;BME280;37534;39.772;2.718;2023-02-18T01:28:56;102933.06;;;5.39;100.00
51460;BME280;37534;39.772;2.718;2023-02-18T01:31:21;102935.47;;;5.34;100.00
51460;BME280;37534;39.772;2.718;2023-02-18T01:33:47;102925.13;;;5.30;100.00
51460;BME280;37534;39.772;2.718;2023-02-18T01:36:13;102928.75;;;5.38;100.00
51460;BME280;37534;39.772;2.718;2023-02-18T01:38:38;102916.69;;;5.34;100.00
51460;BME280;37534;39.772;2.718;2023-02-18T01:41:04;102930.34;;;5.34;100.00
51460;BME280;37534;39.772;2.718;2023-02-18T01:43:31;102926.31;;;5.41;100.00
51460;BME280;37534;39.772;2.718;2023-02-18T01:46:03;102921.09;;;5.38;100.00
51460;BME280;37534;39.772;2.718;2023-02-18T01:48:39;102924.38;;;5.34;100.00
51460;BME280;37534;39.772;2.718;2023-02-18T01:56:15;102920.75;;;5.27;100.00
51460;BME280;37534;39.772;2.718;2023-02-18T01:58:43;102909.75;;;5.30;100.00
51460;BME280;37534;39.772;2.718;2023-02-18T02:01:10;102907.19;;;5.30;100.00
51460;BME280;37534;39.772;2.718;2023-02-18T02:03:35;102911.03;;;5.44;100.00
51460;BME280;37534;39.772;2.718;2023-02-18T02:06:01;102910.78;;;5.35;100.00
51460;BME280;37534;39.772;2.718;2023-02-18T02:08:28;102900.84;;;5.19;100.00
51460;BME280;37534;39.772;2.718;2023-02-18T02:11:08;102916.88;;;5.13;100.00
51460;BME280;37534;39.772;2.718;2023-02-18T02:17:09;102910.00;;;5.10;100.00
51460;BME280;37534;39.772;2.718;2023-02-18T02:23:22;102907.00;;;5.24;100.00
51460;BME280;37534;39.772;2.718;2023-02-18T02:28:58;102903.69;;;5.01;100.00
51460;BME280;37534;39.772;2.718;2023-02-18T02:36:54;102908.16;;;5.06;100.00
51460;BME280;37534;39.772;2.718;2023-02-18T02:42:31;102897.13;;;4.82;100.00
51460;BME280;37534;39.772;2.718;2023-02-18T02:45:10;102900.38;;;4.78;100.00
51460;BME280;37534;39.772;2.718;2023-02-18T02:47:52;102879.84;;;4.74;100.00
51460;BME280;37534;39.772;2.718;2023-02-18T02:50:27;102894.72;;;4.86;100.00
51460;BME280;37534;39.772;2.718;2023-02-18T02:52:58;102880.03;;;4.81;100.00
51460;BME280;37534;39.772;2.718;2023-02-18T02:55:26;102893.56;;;4.76;100.00
51460;BME280;37534;39.772;2.718;2023-02-18T02:57:53;102900.25;;;4.73;100.00
51460;BME280;37534;39.772;2.718;2023-02-18T03:00:37;102883.22;;;4.73;100.00
51460;BME280;37534;39.772;2.718;2023-02-18T03:06:04;102893.16;;;4.64;100.00
51460;BME280;37534;39.772;2.718;2023-02-18T03:11:12;102887.19;;;4.65;100.00
51460;BME280;37534;39.772;2.718;2023-02-18T03:16:26;102884.69;;;4.67;100.00
51460;BME280;37534;39.772;2.718;2023-02-18T03:26:46;102889.81;;;4.92;100.00
51460;BME280;37534;39.772;2.718;2023-02-18T03:29:14;102886.69;;;4.75;100.00
51460;BME280;37534;39.772;2.718;2023-02-18T03:31:42;102872.59;;;4.61;100.00
51460;BME280;37534;39.772;2.718;2023-02-18T03:34:15;102877.34;;;4.50;100.00
51460;BME280;37534;39.772;2.718;2023-02-18T03:36:42;102881.94;;;4.61;100.00
51460;BME280;37534;39.772;2.718;2023-02-18T03:39:14;102883.03;;;4.67;100.00
51460;BME280;37534;39.772;2.718;2023-02-18T03:41:41;102874.09;;;4.56;100.00
51460;BME280;37534;39.772;2.718;2023-02-18T03:44:09;102867.28;;;4.55;100.00
51460;BME280;37534;39.772;2.718;2023-02-18T03:46:38;102856.94;;;4.52;100.00
51460;BME280;37534;39.772;2.718;2023-02-18T03:49:04;102867.31;;;4.56;100.00
51460;BME280;37534;39.772;2.718;2023-02-18T03:51:30;102861.59;;;4.64;100.00
51460;BME280;37534;39.772;2.718;2023-02-18T03:53:56;102866.19;;;4.48;100.00
51460;BME280;37534;39.772;2.718;2023-02-18T03:56:22;102865.94;;;4.41;100.00
51460;BME280;37534;39.772;2.718;2023-02-18T03:58:48;102862.50;;;4.40;100.00
51460;BME280;37534;39.772;2.718;2023-02-18T04:01:13;102862.59;;;4.43;100.00
51460;BME280;37534;39.772;2.718;2023-02-18T04:03:39;102858.34;;;4.44;100.00
51460;BME280;37534;39.772;2.718;2023-02-18T04:06:05;102859.50;;;4.52;100.00
51460;BME280;37534;39.772;2.718;2023-02-18T04:08:31;102841.31;;;4.43;100.00
51460;BME280;37534;39.772;2.718;2023-02-18T04:10:57;102852.22;;;4.38;100.00
51460;BME280;37534;39.772;2.718;2023-02-18T04:13:22;102867.16;;;4.52;100.00
51460;BME280;37534;39.772;2.718;2023-02-18T04:15:49;102845.69;;;4.47;100.00
51460;BME280;37534;39.772;2.718;2023-02-18T04:18:15;102853.75;;;4.33;100.00
51460;BME280;37534;39.772;2.718;2023-02-18T04:20:41;102859.69;;;4.32;100.00
51460;BME280;37534;39.772;2.718;2023-02-18T04:23:06;102857.94;;;4.31;100.00
51460;BME280;37534;39.772;2.718;2023-02-18T04:25:32;102858.72;;;4.29;100.00
51460;BME280;37534;39.772;2.718;2023-02-18T04:27:58;102853.06;;;4.37;100.00
51460;BME280;37534;39.772;2.718;2023-02-18T04:30:24;102858.53;;;4.24;100.00
51460;BME280;37534;39.772;2.718;2023-02-18T04:32:49;102864.81;;;4.32;100.00
51460;BME280;37534;39.772;2.718;2023-02-18T04:35:15;102854.28;;;4.23;100.00
51460;BME280;37534;39.772;2.718;2023-02-18T04:37:41;102867.84;;;4.22;100.00
51460;BME280;37534;39.772;2.718;2023-02-18T04:40:07;102852.31;;;4.16;100.00
51460;BME280;37534;39.772;2.718;2023-02-18T04:42:33;102856.03;;;4.26;100.00
51460;BME280;37534;39.772;2.718;2023-02-18T04:44:59;102854.31;;;4.25;100.00
51460;BME280;37534;39.772;2.718;2023-02-18T04:47:25;102864.69;;;4.29;100.00
51460;BME280;37534;39.772;2.718;2023-02-18T04:49:51;102865.41;;;4.25;100.00
51460;BME280;37534;39.772;2.718;2023-02-18T04:52:16;102868.63;;;4.19;100.00
51460;BME280;37534;39.772;2.718;2023-02-18T04:54:42;102853.66;;;4.06;100.00
51460;BME280;37534;39.772;2.718;2023-02-18T04:57:08;102856.22;;;4.06;100.00
51460;BME280;37534;39.772;2.718;2023-02-18T04:59:33;102856.44;;;4.12;100.00
51460;BME280;37534;39.772;2.718;2023-02-18T05:01:59;102860.97;;;4.19;100.00
51460;BME280;37534;39.772;2.718;2023-02-18T05:04:24;102868.34;;;4.12;100.00
51460;BME280;37534;39.772;2.718;2023-02-18T05:06:50;102857.75;;;4.25;100.00
51460;BME280;37534;39.772;2.718;2023-02-18T05:09:16;102860.34;;;4.27;100.00
51460;BME280;37534;39.772;2.718;2023-02-18T05:11:44;102858.47;;;4.21;100.00
51460;BME280;37534;39.772;2.718;2023-02-18T05:14:10;102860.06;;;4.19;100.00
51460;BME280;37534;39.772;2.718;2023-02-18T05:16:35;102859.03;;;4.14;100.00
51460;BME280;37534;39.772;2.718;2023-02-18T05:19:01;102858.72;;;4.05;100.00
51460;BME280;37534;39.772;2.718;2023-02-18T05:21:27;102872.09;;;3.97;100.00
51460;BME280;37534;39.772;2.718;2023-02-18T05:23:52;102869.72;;;4.02;100.00
51460;BME280;37534;39.772;2.718;2023-02-18T05:26:18;102862.78;;;3.99;100.00
51460;BME280;37534;39.772;2.718;2023-02-18T05:28:43;102870.56;;;4.03;100.00
51460;BME280;37534;39.772;2.718;2023-02-18T05:31:09;102875.69;;;4.03;100.00
51460;BME280;37534;39.772;2.718;2023-02-18T05:33:35;102873.72;;;3.95;100.00
51460;BME280;37534;39.772;2.718;2023-02-18T05:36:00;102884.91;;;3.99;100.00
51460;BME280;37534;39.772;2.718;2023-02-18T05:38:26;102858.19;;;3.89;100.00
51460;BME280;37534;39.772;2.718;2023-02-18T05:40:51;102876.59;;;4.05;100.00
51460;BME280;37534;39.772;2.718;2023-02-18T05:43:17;102871.09;;;3.94;100.00
51460;BME280;37534;39.772;2.718;2023-02-18T05:45:43;102874.38;;;3.90;100.00
51460;BME280;37534;39.772;2.718;2023-02-18T05:48:08;102876.94;;;3.90;100.00
51460;BME280;37534;39.772;2.718;2023-02-18T05:50:34;102892.84;;;4.07;100.00
51460;BME280;37534;39.772;2.718;2023-02-18T05:53:00;102880.91;;;4.06;100.00
51460;BME280;37534;39.772;2.718;2023-02-18T05:55:25;102880.66;;;3.99;100.00
51460;BME280;37534;39.772;2.718;2023-02-18T05:57:51;102885.56;;;3.93;100.00
51460;BME280;37534;39.772;2.718;2023-02-18T06:00:17;102880.22;;;3.87;100.00
51460;BME280;37534;39.772;2.718;2023-02-18T06:02:43;102878.50;;;3.86;100.00
51460;BME280;37534;39.772;2.718;2023-02-18T06:05:09;102864.56;;;3.78;100.00
51460;BME280;37534;39.772;2.718;2023-02-18T06:07:35;102866.44;;;3.82;100.00
51460;BME280;37534;39.772;2.718;2023-02-18T06:10:01;102857.75;;;3.77;100.00
51460;BME280;37534;39.772;2.718;2023-02-18T06:12:27;102860.44;;;3.81;100.00
51460;BME280;37534;39.772;2.718;2023-02-18T06:14:53;102850.47;;;3.88;100.00
51460;BME280;37534;39.772;2.718;2023-02-18T06:17:18;102870.63;;;4.04;100.00
51460;BME280;37534;39.772;2.718;2023-02-18T06:19:45;102872.53;;;4.10;100.00
51460;BME280;37534;39.772;2.718;2023-02-18T06:22:12;102867.59;;;4.14;100.00
51460;BME280;37534;39.772;2.718;2023-02-18T06:24:37;102862.03;;;4.02;100.00
51460;BME280;37534;39.772;2.718;2023-02-18T06:27:03;102874.03;;;4.05;100.00
51460;BME280;37534;39.772;2.718;2023-02-18T06:29:29;102860.03;;;3.93;100.00
51460;BME280;37534;39.772;2.718;2023-02-18T06:31:56;102873.66;;;3.94;100.00
51460;BME280;37534;39.772;2.718;2023-02-18T06:34:22;102859.75;;;3.86;100.00
51460;BME280;37534;39.772;2.718;2023-02-18T06:36:48;102870.84;;;3.86;100.00
51460;BME280;37534;39.772;2.718;2023-02-18T06:39:14;102873.28;;;3.83;100.00
51460;BME280;37534;39.772;2.718;2023-02-18T06:41:39;102862.25;;;3.84;100.00
51460;BME280;37534;39.772;2.718;2023-02-18T06:44:05;102875.22;;;3.90;100.00
51460;BME280;37534;39.772;2.718;2023-02-18T06:46:31;102868.22;;;3.85;100.00
51460;BME280;37534;39.772;2.718;2023-02-18T06:48:56;102851.22;;;3.85;100.00
51460;BME280;37534;39.772;2.718;2023-02-18T06:51:23;102880.78;;;4.03;100.00
51460;BME280;37534;39.772;2.718;2023-02-18T06:53:48;102887.66;;;4.04;100.00
51460;BME280;37534;39.772;2.718;2023-02-18T06:56:14;102887.66;;;4.04;100.00
51460;BME280;37534;39.772;2.718;2023-02-18T06:58:40;102878.88;;;3.97;100.00
51460;BME280;37534;39.772;2.718;2023-02-18T07:01:05;102879.41;;;3.88;100.00
51460;BME280;37534;39.772;2.718;2023-02-18T07:03:31;102893.56;;;4.03;100.00
51460;BME280;37534;39.772;2.718;2023-02-18T07:05:57;102883.81;;;3.92;100.00
51460;BME280;37534;39.772;2.718;2023-02-18T07:08:23;102885.16;;;4.05;100.00
51460;BME280;37534;39.772;2.718;2023-02-18T07:10:50;102879.75;;;3.97;100.00
51460;BME280;37534;39.772;2.718;2023-02-18T07:13:16;102896.00;;;3.99;100.00
51460;BME280;37534;39.772;2.718;2023-02-18T07:15:41;102903.63;;;3.98;100.00
51460;BME280;37534;39.772;2.718;2023-02-18T07:18:07;102894.97;;;3.94;100.00
51460;BME280;37534;39.772;2.718;2023-02-18T07:20:33;102906.59;;;4.10;100.00
51460;BME280;37534;39.772;2.718;2023-02-18T07:22:59;102911.56;;;4.06;100.00
51460;BME280;37534;39.772;2.718;2023-02-18T07:25:24;102918.13;;;3.99;100.00
51460;BME280;37534;39.772;2.718;2023-02-18T07:27:50;102924.22;;;4.03;100.00
51460;BME280;37534;39.772;2.718;2023-02-18T07:30:18;102923.47;;;4.05;100.00
51460;BME280;37534;39.772;2.718;2023-02-18T07:32:43;102912.22;;;4.00;100.00
51460;BME280;37534;39.772;2.718;2023-02-18T07:35:12;102906.88;;;4.18;100.00
51460;BME280;37534;39.772;2.718;2023-02-18T07:37:38;102929.56;;;4.33;100.00
51460;BME280;37534;39.772;2.718;2023-02-18T07:40:04;102930.69;;;4.17;100.00
51460;BME280;37534;39.772;2.718;2023-02-18T07:42:29;102926.34;;;4.14;100.00
51460;BME280;37534;39.772;2.718;2023-02-18T07:44:56;102922.81;;;4.35;100.00
51460;BME280;37534;39.772;2.718;2023-02-18T07:47:21;102909.03;;;4.31;100.00
51460;BME280;37534;39.772;2.718;2023-02-18T07:49:47;102924.72;;;4.41;100.00
51460;BME280;37534;39.772;2.718;2023-02-18T07:52:14;102931.78;;;4.48;100.00
51460;BME280;37534;39.772;2.718;2023-02-18T07:54:40;102929.25;;;4.49;100.00
51460;BME280;37534;39.772;2.718;2023-02-18T07:57:06;102928.53;;;4.52;100.00
51460;BME280;37534;39.772;2.718;2023-02-18T07:59:32;102914.31;;;4.60;100.00
51460;BME280;37534;39.772;2.718;2023-02-18T08:01:57;102908.19;;;4.55;100.00
51460;BME280;37534;39.772;2.718;2023-02-18T08:04:23;102922.75;;;4.57;100.00
51460;BME280;37534;39.772;2.718;2023-02-18T08:06:49;102930.59;;;4.62;100.00
51460;BME280;37534;39.772;2.718;2023-02-18T08:09:16;102937.66;;;4.69;100.00
51460;BME280;37534;39.772;2.718;2023-02-18T08:11:42;102929.06;;;4.67;100.00
51460;BME280;37534;39.772;2.718;2023-02-18T08:14:08;102936.25;;;4.79;100.00
51460;BME280;37534;39.772;2.718;2023-02-18T08:16:34;102933.03;;;4.85;100.00
51460;BME280;37534;39.772;2.718;2023-02-18T08:19:00;102920.91;;;5.32;100.00
51460;BME280;37534;39.772;2.718;2023-02-18T08:21:27;102925.00;;;7.12;100.00
51460;BME280;37534;39.772;2.718;2023-02-18T08:23:53;102933.06;;;8.50;100.00
51460;BME280;37534;39.772;2.718;2023-02-18T08:26:20;102949.13;;;10.84;100.00
51460;BME280;37534;39.772;2.718;2023-02-18T08:28:46;102955.25;;;12.63;100.00
51460;BME280;37534;39.772;2.718;2023-02-18T08:31:24;102954.16;;;14.06;88.50
51460;BME280;37534;39.772;2.718;2023-02-18T08:33:52;102956.19;;;15.82;79.25
51460;BME280;37534;39.772;2.718;2023-02-18T08:36:18;102948.41;;;17.48;72.42
51460;BME280;37534;39.772;2.718;2023-02-18T08:38:44;102952.25;;;18.91;65.29
51460;BME280;37534;39.772;2.718;2023-02-18T08:41:10;102954.09;;;19.21;54.15
51460;BME280;37534;39.772;2.718;2023-02-18T08:43:36;102951.81;;;19.08;57.48
51460;BME280;37534;39.772;2.718;2023-02-18T08:46:03;102961.53;;;16.96;61.96
51460;BME280;37534;39.772;2.718;2023-02-18T08:48:29;102954.09;;;18.86;61.21
51460;BME280;37534;39.772;2.718;2023-02-18T08:50:55;102947.91;;;20.44;51.64
51460;BME280;37534;39.772;2.718;2023-02-18T08:53:20;102942.16;;;19.42;54.54
51460;BME280;37534;39.772;2.718;2023-02-18T08:55:46;102955.94;;;18.81;57.91
51460;BME280;37534;39.772;2.718;2023-02-18T08:58:12;102953.16;;;19.86;54.94
51460;BME280;37534;39.772;2.718;2023-02-18T09:00:40;102957.22;;;21.56;50.63
51460;BME280;37534;39.772;2.718;2023-02-18T09:03:06;102954.34;;;20.33;50.05
51460;BME280;37534;39.772;2.718;2023-02-18T09:05:32;102960.28;;;20.10;52.93
51460;BME280;37534;39.772;2.718;2023-02-18T09:07:58;102957.50;;;21.23;49.17
51460;BME280;37534;39.772;2.718;2023-02-18T09:10:24;102956.91;;;23.19;45.26
51460;BME280;37534;39.772;2.718;2023-02-18T09:12:49;102949.75;;;24.36;42.19
51460;BME280;37534;39.772;2.718;2023-02-18T09:15:16;102941.69;;;25.09;37.83
51460;BME280;37534;39.772;2.718;2023-02-18T09:17:41;102957.69;;;26.36;37.22
51460;BME280;37534;39.772;2.718;2023-02-18T09:20:08;102951.03;;;26.90;36.05
51460;BME280;37534;39.772;2.718;2023-02-18T09:22:33;102961.47;;;26.47;34.67
51460;BME280;37534;39.772;2.718;2023-02-18T09:24:59;102957.13;;;26.15;35.84
51460;BME280;37534;39.772;2.718;2023-02-18T09:27:24;102955.69;;;26.10;37.69
51460;BME280;37534;39.772;2.718;2023-02-18T09:29:50;102944.84;;;27.48;34.43
51460;BME280;37534;39.772;2.718;2023-02-18T09:32:16;102950.25;;;28.43;32.32
51460;BME280;37534;39.772;2.718;2023-02-18T09:34:43;102939.50;;;27.63;31.76
51460;BME280;37534;39.772;2.718;2023-02-18T09:37:08;102954.28;;;28.49;31.97
51460;BME280;37534;39.772;2.718;2023-02-18T09:39:35;102945.03;;;28.94;31.12
51460;BME280;37534;39.772;2.718;2023-02-18T09:42:06;102944.22;;;29.44;28.44
51460;BME280;37534;39.772;2.718;2023-02-18T09:44:48;102957.78;;;29.15;26.97
51460;BME280;37534;39.772;2.718;2023-02-18T09:47:35;102945.13;;;30.05;27.37
51460;BME280;37534;39.772;2.718;2023-02-18T09:50:21;102938.56;;;30.58;27.34
51460;BME280;37534;39.772;2.718;2023-02-18T09:52:48;102943.88;;;30.22;26.20
51460;BME280;37534;39.772;2.718;2023-02-18T09:55:18;102949.00;;;30.83;25.79
51460;BME280;37534;39.772;2.718;2023-02-18T09:57:50;102943.97;;;31.25;26.37
51460;BME280;37534;39.772;2.718;2023-02-18T10:02:52;102940.09;;;31.30;25.37
51460;BME280;37534;39.772;2.718;2023-02-18T10:05:19;102947.50;;;31.92;24.53
51460;BME280;37534;39.772;2.718;2023-02-18T10:07:48;102947.19;;;31.86;24.09
51460;BME280;37534;39.772;2.718;2023-02-18T10:10:39;102947.16;;;32.71;23.14
51460;BME280;37534;39.772;2.718;2023-02-18T10:13:13;102940.09;;;31.52;24.09
51460;BME280;37534;39.772;2.718;2023-02-18T10:15:39;102932.22;;;32.69;23.66
51460;BME280;37534;39.772;2.718;2023-02-18T10:18:23;102928.69;;;31.94;23.47
51460;BME280;37534;39.772;2.718;2023-02-18T10:20:56;102938.13;;;32.09;23.95
51460;BME280;37534;39.772;2.718;2023-02-18T10:23:24;102933.19;;;30.35;25.31
51460;BME280;37534;39.772;2.718;2023-02-18T10:25:51;102927.06;;;29.24;26.77
51460;BME280;37534;39.772;2.718;2023-02-18T10:28:20;102933.38;;;30.32;25.85
51460;BME280;37534;39.772;2.718;2023-02-18T10:30:56;102931.81;;;31.44;25.57
51460;BME280;37534;39.772;2.718;2023-02-18T10:33:33;102930.75;;;31.46;24.84
51460;BME280;37534;39.772;2.718;2023-02-18T10:36:25;102932.41;;;31.70;25.17
51460;BME280;37534;39.772;2.718;2023-02-18T10:50:46;102928.66;;;34.49;23.78
51460;BME280;37534;39.772;2.718;2023-02-18T10:55:47;102918.00;;;35.41;23.18
51460;BME280;37534;39.772;2.718;2023-02-18T10:58:35;102913.13;;;34.72;22.51
51460;BME280;37534;39.772;2.718;2023-02-18T11:01:13;102915.44;;;33.88;23.15
51460;BME280;37534;39.772;2.718;2023-02-18T11:08:44;102915.22;;;34.68;23.01
51460;BME280;37534;39.772;2.718;2023-02-18T11:11:21;102904.53;;;33.61;24.48
51460;BME280;37534;39.772;2.718;2023-02-18T11:13:55;102906.09;;;34.98;23.44
51460;BME280;37534;39.772;2.718;2023-02-18T11:16:23;102906.97;;;33.93;22.47
51460;BME280;37534;39.772;2.718;2023-02-18T11:19:00;102904.72;;;33.79;22.93
51460;BME280;37534;39.772;2.718;2023-02-18T11:21:31;102905.72;;;34.17;22.34
51460;BME280;37534;39.772;2.718;2023-02-18T11:24:09;102901.19;;;34.07;23.16
51460;BME280;37534;39.772;2.718;2023-02-18T11:26:39;102900.91;;;33.91;23.43
51460;BME280;37534;39.772;2.718;2023-02-18T11:29:19;102905.72;;;34.26;23.16
51460;BME280;37534;39.772;2.718;2023-02-18T11:31:49;102902.72;;;34.39;22.74
51460;BME280;37534;39.772;2.718;2023-02-18T11:34:22;102898.72;;;35.00;22.43
51460;BME280;37534;39.772;2.718;2023-02-18T11:36:49;102897.59;;;35.49;22.11
51460;BME280;37534;39.772;2.718;2023-02-18T11:39:27;102904.69;;;35.22;21.95
51460;BME280;37534;39.772;2.718;2023-02-18T11:42:06;102898.84;;;35.72;22.15
51460;BME280;37534;39.772;2.718;2023-02-18T11:44:34;102896.38;;;35.15;22.19
51460;BME280;37534;39.772;2.718;2023-02-18T11:49:44;102885.13;;;34.84;22.15
51460;BME280;37534;39.772;2.718;2023-02-18T11:52:25;102874.34;;;34.46;22.02
51460;BME280;37534;39.772;2.718;2023-02-18T11:57:37;102883.53;;;34.34;23.25
51460;BME280;37534;39.772;2.718;2023-02-18T12:00:19;102886.84;;;34.65;23.15
51460;BME280;37534;39.772;2.718;2023-02-18T12:02:46;102884.22;;;34.93;22.79
51460;BME280;37534;39.772;2.718;2023-02-18T12:05:24;102879.09;;;34.72;22.95
51460;BME280;37534;39.772;2.718;2023-02-18T12:08:06;102863.91;;;34.91;22.35
51460;BME280;37534;39.772;2.718;2023-02-18T12:10:41;102867.09;;;35.04;22.82
51460;BME280;37534;39.772;2.718;2023-02-18T12:13:41;102857.88;;;35.34;22.24
51460;BME280;37534;39.772;2.718;2023-02-18T12:24:59;102849.44;;;35.65;22.06
51460;BME280;37534;39.772;2.718;2023-02-18T12:33:42;102829.50;;;35.86;21.87
51460;BME280;37534;39.772;2.718;2023-02-18T12:53:12;102777.44;;;36.47;21.18
51460;BME280;37534;39.772;2.718;2023-02-18T12:56:22;102773.84;;;35.52;21.55
51460;BME280;37534;39.772;2.718;2023-02-18T13:05:17;102756.75;;;35.35;22.12
51460;BME280;37534;39.772;2.718;2023-02-18T13:12:54;102755.97;;;34.23;23.25
51460;BME280;37534;39.772;2.718;2023-02-18T13:15:46;102750.59;;;34.33;22.99
51460;BME280;37534;39.772;2.718;2023-02-18T13:18:26;102745.50;;;34.40;22.57
51460;BME280;37534;39.772;2.718;2023-02-18T13:20:59;102737.50;;;33.83;23.67
51460;BME280;37534;39.772;2.718;2023-02-18T13:23:29;102735.97;;;33.41;23.19
51460;BME280;37534;39.772;2.718;2023-02-18T13:25:59;102735.78;;;32.94;23.90
51460;BME280;37534;39.772;2.718;2023-02-18T13:39:03;102701.13;;;33.90;24.57
51460;BME280;37534;39.772;2.718;2023-02-18T13:41:38;102700.38;;;33.98;24.07
51460;BME280;37534;39.772;2.718;2023-02-18T13:44:08;102696.91;;;34.25;23.38
51460;BME280;37534;39.772;2.718;2023-02-18T13:46:56;102693.03;;;34.00;23.65
51460;BME280;37534;39.772;2.718;2023-02-18T13:49:30;102684.56;;;33.67;24.17
51460;BME280;37534;39.772;2.718;2023-02-18T13:51:58;102690.97;;;33.94;24.15
51460;BME280;37534;39.772;2.718;2023-02-18T13:54:28;102683.09;;;33.82;23.52
51460;BME280;37534;39.772;2.718;2023-02-18T14:07:24;102675.00;;;32.76;24.76
51460;BME280;37534;39.772;2.718;2023-02-18T14:09:56;102661.75;;;33.04;23.90
51460;BME280;37534;39.772;2.718;2023-02-18T14:12:36;102673.56;;;33.11;23.73
51460;BME280;37534;39.772;2.718;2023-02-18T14:26:05;102674.16;;;31.53;26.53
51460;BME280;37534;39.772;2.718;2023-02-18T14:31:05;102664.91;;;31.78;27.24
51460;BME280;37534;39.772;2.718;2023-02-18T14:34:05;102671.03;;;31.99;26.35
51460;BME280;37534;39.772;2.718;2023-02-18T14:41:47;102664.34;;;31.53;27.17
51460;BME280;37534;39.772;2.718;2023-02-18T14:44:19;102665.78;;;31.25;28.23
51460;BME280;37534;39.772;2.718;2023-02-18T14:49:37;102659.72;;;31.34;27.50
51460;BME280;37534;39.772;2.718;2023-02-18T14:52:06;102650.72;;;30.59;28.48
51460;BME280;37534;39.772;2.718;2023-02-18T14:54:38;102633.69;;;30.17;29.16
51460;BME280;37534;39.772;2.718;2023-02-18T14:57:16;102648.38;;;29.88;29.17
51460;BME280;37534;39.772;2.718;2023-02-18T14:59:44;102645.66;;;29.66;29.66
51460;BME280;37534;39.772;2.718;2023-02-18T15:02:22;102643.75;;;30.02;29.92
51460;BME280;37534;39.772;2.718;2023-02-18T15:04:52;102637.72;;;29.88;29.88
51460;BME280;37534;39.772;2.718;2023-02-18T15:07:20;102630.09;;;29.84;30.20
51460;BME280;37534;39.772;2.718;2023-02-18T15:09:48;102628.47;;;29.58;30.97
51460;BME280;37534;39.772;2.718;2023-02-18T15:12:18;102628.81;;;29.54;31.15
51460;BME280;37534;39.772;2.718;2023-02-18T15:14:46;102636.22;;;29.62;30.82
51460;BME280;37534;39.772;2.718;2023-02-18T15:17:16;102631.25;;;28.97;31.71
51460;BME280;37534;39.772;2.718;2023-02-18T15:19:49;102630.13;;;28.65;31.70
51460;BME280;37534;39.772;2.718;2023-02-18T15:22:19;102626.53;;;28.53;32.06
51460;BME280;37534;39.772;2.718;2023-02-18T15:24:47;102613.59;;;28.48;31.97
51460;BME280;37534;39.772;2.718;2023-02-18T15:27:16;102622.56;;;28.34;32.36
51460;BME280;37534;39.772;2.718;2023-02-18T15:29:43;102620.91;;;27.69;33.60
51460;BME280;37534;39.772;2.718;2023-02-18T15:32:24;102617.19;;;27.19;34.20